createdAt,value
2023-05-12T00:00:05.804Z,12.22
2023-05-12T00:00:35.004Z,12.22
2023-05-12T00:00:53.222Z,12.22
2023-05-12T00:01:25.570Z,12.22
2023-05-12T00:01:42.803Z,12.22
2023-05-12T00:02:12.949Z,12.22
2023-05-12T00:02:35.883Z,12.22
2023-05-12T00:03:01.679Z,12.22
2023-05-12T00:03:33.000Z,12.22
2023-05-12T00:04:05.018Z,12.22
2023-05-12T00:04:35.097Z,12.22
2023-05-12T00:04:53.063Z,12.27
2023-05-12T00:05:26.316Z,12.27
2023-05-12T00:05:56.866Z,12.27
2023-05-12T00:06:28.997Z,12.27
2023-05-12T00:07:01.025Z,12.27
2023-05-12T00:07:32.935Z,12.27
2023-05-12T00:08:04.930Z,12.27
2023-05-12T00:08:34.859Z,12.27
2023-05-12T00:08:53.805Z,12.27
2023-05-12T00:09:24.976Z,12.27
2023-05-12T00:09:42.060Z,12.27
2023-05-12T00:10:15.434Z,12.27
2023-05-12T00:10:34.829Z,12.27
2023-05-12T00:11:01.035Z,12.27
2023-05-12T00:11:33.703Z,12.22
2023-05-12T00:12:04.988Z,12.22
2023-05-12T00:12:34.813Z,12.22
2023-05-12T00:12:53.750Z,12.22
2023-05-12T00:13:25.223Z,12.27
2023-05-12T00:13:42.273Z,12.27
2023-05-12T00:14:13.904Z,12.27
2023-05-12T00:14:35.136Z,12.27
2023-05-12T00:15:01.292Z,12.27
2023-05-12T00:15:33.820Z,12.27
2023-05-12T00:16:05.014Z,12.22
2023-05-12T00:16:34.878Z,12.22
2023-05-12T00:16:54.021Z,12.22
2023-05-12T00:17:24.977Z,12.22
2023-05-12T00:17:42.133Z,12.22
2023-05-12T00:18:13.776Z,12.22
2023-05-12T00:18:34.855Z,12.22
2023-05-12T00:19:00.984Z,12.22
2023-05-12T00:19:33.685Z,12.22
2023-05-12T00:20:05.088Z,12.22
2023-05-12T00:20:35.791Z,12.22
2023-05-12T00:20:53.919Z,12.22
2023-05-12T00:21:24.940Z,12.22
2023-05-12T00:21:42.070Z,12.22
2023-05-12T00:22:14.079Z,12.22
2023-05-12T00:22:35.550Z,12.22
2023-05-12T00:23:01.061Z,12.22
2023-05-12T00:23:33.855Z,12.22
2023-05-12T00:24:05.014Z,12.22
2023-05-12T00:24:35.291Z,12.22
2023-05-12T00:24:55.000Z,12.22
2023-05-12T00:25:25.587Z,12.22
2023-05-12T00:25:42.060Z,12.22
2023-05-12T00:26:13.852Z,12.22
2023-05-12T00:26:35.434Z,12.22
2023-05-12T00:27:01.036Z,12.22
2023-05-12T00:27:32.969Z,12.22
2023-05-12T00:28:05.049Z,12.22
2023-05-12T00:28:34.979Z,12.22
2023-05-12T00:28:52.903Z,12.11
2023-05-12T00:29:25.629Z,12.11
2023-05-12T00:29:42.801Z,12.11
2023-05-12T00:30:13.267Z,12.11
2023-05-12T00:30:35.591Z,12.11
2023-05-12T00:31:01.702Z,12.11
2023-05-12T00:31:32.997Z,12.11
2023-05-12T00:32:05.120Z,12.11
2023-05-12T00:32:34.873Z,12.11
2023-05-12T00:32:53.035Z,12.11
2023-05-12T00:33:25.844Z,12.11
2023-05-12T00:33:56.940Z,12.11
2023-05-12T00:34:28.936Z,12.11
2023-05-12T00:35:01.177Z,12.11
2023-05-12T00:35:32.957Z,12.11
2023-05-12T00:36:05.043Z,12.11
2023-05-12T00:36:34.934Z,12.11
2023-05-12T00:36:53.665Z,12.11
2023-05-12T00:37:25.034Z,12.11
2023-05-12T00:37:42.114Z,12.11
2023-05-12T00:38:13.772Z,12.11
2023-05-12T00:38:34.849Z,12.11
2023-05-12T00:39:01.097Z,12.11
2023-05-12T00:39:33.649Z,12.11
2023-05-12T00:40:05.297Z,12.11
2023-05-12T00:40:34.896Z,12.11
2023-05-12T00:40:53.964Z,12.11
2023-05-12T00:41:25.060Z,12.11
2023-05-12T00:41:42.061Z,12.11
2023-05-12T00:42:13.842Z,12.11
2023-05-12T00:42:35.876Z,12.11
2023-05-12T00:43:01.076Z,12.11
2023-05-12T00:43:33.658Z,12.11
2023-05-12T00:44:05.291Z,12.11
2023-05-12T00:44:34.893Z,12.11
2023-05-12T00:44:53.705Z,12.11
2023-05-12T00:45:25.310Z,12.11
2023-05-12T00:45:42.091Z,12.11
2023-05-12T00:46:13.804Z,12.11
2023-05-12T00:46:34.874Z,12.11
2023-05-12T00:47:01.066Z,12.11
2023-05-12T00:47:33.766Z,12.11
2023-05-12T00:48:05.200Z,12.11
2023-05-12T00:48:34.930Z,12.11
2023-05-12T00:48:53.621Z,12.11
2023-05-12T00:49:25.065Z,12.11
2023-05-12T00:49:42.067Z,12.11
2023-05-12T00:50:14.026Z,12.11
2023-05-12T00:50:35.042Z,12.11
2023-05-12T00:51:01.027Z,12.11
2023-05-12T00:51:34.740Z,12.11
2023-05-12T00:52:05.054Z,12.11
2023-05-12T00:52:35.490Z,12.11
2023-05-12T00:52:54.567Z,12.11
2023-05-12T00:53:27.719Z,12.11
2023-05-12T00:53:49.123Z,12.11
2023-05-12T00:54:13.640Z,12.11
2023-05-12T00:54:35.901Z,12.11
2023-05-12T00:55:01.228Z,12.11
2023-05-12T00:55:34.270Z,12.11
2023-05-12T00:56:05.081Z,12.11
2023-05-12T00:56:35.707Z,12.11
2023-05-12T00:56:53.740Z,12.11
2023-05-12T00:57:34.885Z,12.11
2023-05-12T00:57:56.975Z,12.11
2023-05-12T00:58:29.035Z,12.22
2023-05-12T00:59:01.035Z,12.22
2023-05-12T00:59:32.954Z,12.22
2023-05-12T01:00:05.754Z,12.22
2023-05-12T01:00:34.960Z,12.22
2023-05-12T01:00:53.110Z,12.11
2023-05-12T01:01:25.765Z,12.11
2023-05-12T01:02:13.038Z,12.11
2023-05-12T01:02:35.026Z,12.22
2023-05-12T01:03:01.046Z,12.22
2023-05-12T01:03:33.044Z,12.22
2023-05-12T01:04:04.956Z,12.22
2023-05-12T01:04:34.954Z,12.22
2023-05-12T01:04:52.951Z,12.22
2023-05-12T01:05:25.934Z,12.22
2023-05-12T01:05:56.960Z,12.22
2023-05-12T01:06:28.972Z,12.22
2023-05-12T01:07:00.981Z,12.22
2023-05-12T01:07:33.002Z,12.22
2023-05-12T01:08:05.052Z,12.22
2023-05-12T01:08:34.912Z,12.22
2023-05-12T01:08:53.726Z,12.22
2023-05-12T01:09:25.404Z,12.22
2023-05-12T01:09:42.148Z,12.22
2023-05-12T01:10:13.911Z,12.22
2023-05-12T01:10:34.851Z,12.22
2023-05-12T01:11:00.930Z,12.22
2023-05-12T01:11:33.579Z,12.22
2023-05-12T01:12:05.073Z,12.22
2023-05-12T01:12:34.897Z,12.22
2023-05-12T01:12:53.691Z,12.22
2023-05-12T01:13:24.970Z,12.22
2023-05-12T01:13:42.238Z,12.22
2023-05-12T01:14:13.660Z,12.22
2023-05-12T01:14:34.860Z,12.22
2023-05-12T01:15:01.255Z,12.22
2023-05-12T01:15:33.698Z,12.22
2023-05-12T01:16:04.996Z,12.22
2023-05-12T01:16:35.579Z,12.22
2023-05-12T01:17:08.972Z,12.22
2023-05-12T01:17:35.079Z,12.22
2023-05-12T01:17:57.046Z,12.22
2023-05-12T01:18:29.037Z,12.22
2023-05-12T01:19:01.819Z,12.22
2023-05-12T01:19:33.929Z,12.22
2023-05-12T01:20:05.127Z,12.22
2023-05-12T01:20:34.905Z,12.22
2023-05-12T01:20:53.110Z,12.22
2023-05-12T01:21:25.625Z,12.22
2023-05-12T01:21:42.948Z,12.22
2023-05-12T01:22:13.008Z,12.22
2023-05-12T01:22:34.864Z,12.22
2023-05-12T01:23:01.666Z,12.22
2023-05-12T01:23:32.943Z,12.22
2023-05-12T01:24:05.281Z,12.22
2023-05-12T01:24:34.857Z,12.22
2023-05-12T01:24:52.918Z,12.22
2023-05-12T01:25:25.959Z,12.22
2023-05-12T01:25:42.994Z,12.22
2023-05-12T01:26:12.955Z,12.22
2023-05-12T01:26:34.913Z,12.22
2023-05-12T01:27:01.697Z,12.22
2023-05-12T01:27:33.275Z,12.22
2023-05-12T01:28:05.132Z,12.22
2023-05-12T01:28:34.873Z,12.22
2023-05-12T01:28:52.968Z,12.22
2023-05-12T01:29:25.657Z,12.22
2023-05-12T01:29:42.772Z,12.22
2023-05-12T01:30:13.192Z,12.22
2023-05-12T01:30:34.875Z,12.22
2023-05-12T01:31:01.081Z,12.22
2023-05-12T01:31:33.729Z,12.22
2023-05-12T01:32:05.008Z,12.22
2023-05-12T01:32:34.887Z,12.22
2023-05-12T01:32:53.732Z,12.22
2023-05-12T01:33:25.043Z,12.27
2023-05-12T01:33:42.051Z,12.27
2023-05-12T01:34:13.776Z,12.27
2023-05-12T01:34:34.970Z,12.27
2023-05-12T01:35:01.153Z,12.27
2023-05-12T01:35:33.712Z,12.22
2023-05-12T01:36:04.914Z,12.22
2023-05-12T01:36:34.875Z,12.22
2023-05-12T01:36:53.602Z,12.22
2023-05-12T01:37:25.567Z,12.22
2023-05-12T01:37:42.046Z,12.22
2023-05-12T01:38:13.840Z,12.22
2023-05-12T01:38:35.532Z,12.22
2023-05-12T01:39:00.991Z,12.22
2023-05-12T01:39:32.924Z,12.22
2023-05-12T01:40:05.186Z,12.22
2023-05-12T01:40:34.872Z,12.22
2023-05-12T01:40:53.070Z,12.22
2023-05-12T01:41:25.634Z,12.22
2023-05-12T01:41:42.742Z,12.22
2023-05-12T01:42:12.905Z,12.22
2023-05-12T01:42:34.941Z,12.27
2023-05-12T01:43:01.669Z,12.27
2023-05-12T01:43:32.859Z,12.27
2023-05-12T01:44:05.295Z,12.27
2023-05-12T01:44:35.139Z,12.27
2023-05-12T01:44:52.945Z,12.27
2023-05-12T01:45:26.016Z,12.27
2023-05-12T01:45:42.860Z,12.22
2023-05-12T01:46:12.955Z,12.22
2023-05-12T01:46:35.545Z,12.22
2023-05-12T01:47:01.297Z,12.22
2023-05-12T01:47:33.683Z,12.27
2023-05-12T01:48:05.063Z,12.27
2023-05-12T01:48:34.884Z,12.27
2023-05-12T01:48:53.605Z,12.27
2023-05-12T01:49:24.972Z,12.27
2023-05-12T01:49:42.092Z,12.27
2023-05-12T01:50:13.942Z,12.27
2023-05-12T01:50:36.124Z,12.27
2023-05-12T01:51:00.990Z,12.27
2023-05-12T01:51:33.718Z,12.22
2023-05-12T01:52:04.993Z,12.22
2023-05-12T01:52:34.955Z,12.22
2023-05-12T01:52:53.605Z,12.22
2023-05-12T01:53:25.014Z,12.22
2023-05-12T01:53:42.055Z,12.22
2023-05-12T01:54:13.622Z,12.22
2023-05-12T01:54:35.507Z,12.22
2023-05-12T01:55:01.130Z,12.22
2023-05-12T01:55:33.824Z,12.22
2023-05-12T01:56:05.081Z,12.22
2023-05-12T01:56:34.870Z,12.22
2023-05-12T01:56:53.679Z,12.22
2023-05-12T01:57:25.357Z,12.22
2023-05-12T01:57:42.111Z,12.22
2023-05-12T01:58:13.730Z,12.22
2023-05-12T01:58:34.940Z,12.22
2023-05-12T01:59:00.952Z,12.22
2023-05-12T01:59:33.556Z,12.22
2023-05-12T02:00:05.599Z,12.22
2023-05-12T02:00:35.079Z,12.22
2023-05-12T02:00:53.892Z,12.22
2023-05-12T02:01:25.050Z,12.22
2023-05-12T02:01:42.132Z,12.22
2023-05-12T02:02:13.748Z,12.22
2023-05-12T02:02:35.442Z,12.22
2023-05-12T02:03:01.066Z,12.22
2023-05-12T02:03:33.794Z,12.22
2023-05-12T02:04:05.217Z,12.22
2023-05-12T02:04:34.916Z,12.22
2023-05-12T02:04:53.810Z,12.22
2023-05-12T02:05:25.104Z,12.22
2023-05-12T02:05:42.047Z,12.22
2023-05-12T02:06:13.846Z,12.22
2023-05-12T02:06:34.948Z,12.22
2023-05-12T02:07:00.932Z,12.22
2023-05-12T02:07:33.577Z,12.22
2023-05-12T02:08:04.953Z,12.22
2023-05-12T02:08:35.029Z,12.22
2023-05-12T02:08:53.746Z,12.22
2023-05-12T02:09:25.029Z,12.22
2023-05-12T02:09:42.057Z,12.22
2023-05-12T02:10:13.924Z,12.22
2023-05-12T02:10:35.261Z,12.22
2023-05-12T02:11:01.030Z,12.22
2023-05-12T02:11:33.549Z,12.22
2023-05-12T02:12:04.999Z,12.22
2023-05-12T02:12:34.899Z,12.22
2023-05-12T02:12:53.909Z,12.22
2023-05-12T02:13:25.216Z,12.22
2023-05-12T02:13:42.054Z,12.22
2023-05-12T02:14:13.577Z,12.22
2023-05-12T02:14:35.718Z,12.22
2023-05-12T02:15:01.218Z,12.22
2023-05-12T02:15:33.714Z,12.22
2023-05-12T02:16:05.105Z,12.22
2023-05-12T02:16:34.965Z,12.22
2023-05-12T02:16:53.678Z,12.22
2023-05-12T02:17:25.199Z,12.22
2023-05-12T02:17:42.040Z,12.22
2023-05-12T02:18:13.641Z,12.22
2023-05-12T02:18:35.074Z,12.22
2023-05-12T02:19:01.103Z,12.22
2023-05-12T02:19:33.582Z,12.22
2023-05-12T02:20:05.689Z,12.22
2023-05-12T02:20:34.866Z,12.22
2023-05-12T02:20:53.832Z,12.22
2023-05-12T02:21:25.065Z,12.22
2023-05-12T02:21:42.056Z,12.22
2023-05-12T02:22:13.966Z,12.22
2023-05-12T02:22:35.252Z,12.11
2023-05-12T02:23:00.918Z,12.11
2023-05-12T02:23:33.604Z,12.11
2023-05-12T02:24:04.986Z,12.11
2023-05-12T02:24:35.433Z,12.11
2023-05-12T02:24:53.603Z,12.11
2023-05-12T02:25:25.356Z,12.11
2023-05-12T02:25:42.106Z,12.11
2023-05-12T02:26:13.919Z,12.11
2023-05-12T02:26:34.930Z,12.11
2023-05-12T02:27:00.994Z,12.11
2023-05-12T02:27:33.643Z,12.11
2023-05-12T02:28:04.956Z,12.11
2023-05-12T02:28:35.149Z,12.11
2023-05-12T02:28:53.565Z,12.11
2023-05-12T02:29:25.048Z,12.11
2023-05-12T02:29:42.098Z,12.11
2023-05-12T02:30:14.008Z,12.11
2023-05-12T02:30:35.548Z,12.11
2023-05-12T02:31:00.907Z,12.11
2023-05-12T02:31:33.713Z,12.11
2023-05-12T02:32:05.280Z,12.11
2023-05-12T02:32:34.854Z,12.11
2023-05-12T02:32:53.669Z,12.11
2023-05-12T02:33:25.014Z,12.11
2023-05-12T02:33:42.053Z,12.11
2023-05-12T02:34:13.607Z,12.11
2023-05-12T02:34:35.124Z,12.11
2023-05-12T02:35:01.201Z,12.11
2023-05-12T02:35:33.617Z,12.11
2023-05-12T02:36:05.032Z,12.11
2023-05-12T02:36:35.261Z,12.11
2023-05-12T02:36:53.649Z,12.11
2023-05-12T02:37:25.154Z,12.11
2023-05-12T02:37:42.207Z,12.11
2023-05-12T02:38:13.729Z,12.11
2023-05-12T02:38:34.902Z,12.11
2023-05-12T02:39:01.050Z,12.11
2023-05-12T02:39:33.573Z,12.11
2023-05-12T02:40:05.196Z,12.11
2023-05-12T02:40:35.217Z,12.11
2023-05-12T02:40:53.877Z,12.11
2023-05-12T02:41:25.071Z,12.11
2023-05-12T02:41:42.037Z,12.11
2023-05-12T02:42:13.614Z,12.11
2023-05-12T02:42:35.013Z,12.11
2023-05-12T02:43:00.953Z,12.11
2023-05-12T02:43:33.712Z,12.11
2023-05-12T02:44:05.168Z,12.11
2023-05-12T02:44:35.409Z,12.11
2023-05-12T02:44:53.587Z,12.11
2023-05-12T02:45:25.250Z,12.11
2023-05-12T02:45:42.054Z,12.11
2023-05-12T02:46:13.712Z,12.11
2023-05-12T02:46:34.790Z,12.11
2023-05-12T02:47:00.920Z,12.11
2023-05-12T02:47:33.565Z,12.11
2023-05-12T02:48:04.991Z,12.11
2023-05-12T02:48:34.950Z,12.11
2023-05-12T02:48:53.645Z,12.11
2023-05-12T02:49:25.031Z,12.11
2023-05-12T02:49:42.029Z,12.11
2023-05-12T02:50:13.931Z,12.11
2023-05-12T02:50:34.829Z,12.11
2023-05-12T02:51:01.097Z,12.11
2023-05-12T02:51:33.613Z,12.11
2023-05-12T02:52:04.936Z,12.11
2023-05-12T02:52:35.578Z,12.11
2023-05-12T02:52:53.601Z,12.00
2023-05-12T02:53:24.977Z,12.00
2023-05-12T02:53:42.065Z,12.00
2023-05-12T02:54:13.704Z,12.00
2023-05-12T02:54:34.899Z,12.00
2023-05-12T02:55:01.138Z,12.11
2023-05-12T02:55:33.756Z,12.11
2023-05-12T02:56:05.053Z,12.11
2023-05-12T02:56:34.907Z,12.11
2023-05-12T02:56:53.587Z,12.11
2023-05-12T02:57:24.990Z,12.11
2023-05-12T02:57:42.091Z,12.11
2023-05-12T02:58:13.623Z,12.00
2023-05-12T02:58:35.137Z,12.00
2023-05-12T02:59:01.071Z,12.00
2023-05-12T02:59:33.717Z,12.00
2023-05-12T03:00:05.668Z,12.00
2023-05-12T03:00:35.132Z,12.00
2023-05-12T03:01:00.085Z,12.00
2023-05-12T03:01:25.083Z,12.00
2023-05-12T03:01:42.086Z,12.00
2023-05-12T03:02:13.772Z,12.00
2023-05-12T03:02:34.956Z,11.88
2023-05-12T03:03:01.107Z,11.88
2023-05-12T03:03:32.995Z,11.88
2023-05-12T03:04:05.231Z,11.88
2023-05-12T03:04:35.948Z,11.88
2023-05-12T03:04:52.966Z,11.88
2023-05-12T03:05:25.922Z,11.88
2023-05-12T03:05:42.739Z,11.88
2023-05-12T03:06:12.887Z,11.88
2023-05-12T03:06:34.934Z,11.88
2023-05-12T03:07:01.668Z,11.88
2023-05-12T03:07:32.867Z,11.88
2023-05-12T03:08:04.927Z,11.88
2023-05-12T03:08:35.161Z,11.88
2023-05-12T03:08:52.929Z,11.88
2023-05-12T03:09:25.568Z,11.88
2023-05-12T03:09:42.741Z,11.88
2023-05-12T03:10:13.105Z,11.88
2023-05-12T03:10:35.006Z,11.88
2023-05-12T03:11:01.685Z,11.88
2023-05-12T03:11:32.914Z,11.88
2023-05-12T03:12:04.972Z,11.88
2023-05-12T03:12:35.036Z,11.88
2023-05-12T03:12:53.253Z,11.88
2023-05-12T03:13:25.723Z,11.88
2023-05-12T03:13:42.841Z,11.88
2023-05-12T03:14:12.980Z,11.88
2023-05-12T03:14:35.420Z,11.88
2023-05-12T03:15:01.860Z,11.88
2023-05-12T03:15:32.914Z,11.88
2023-05-12T03:16:04.917Z,11.88
2023-05-12T03:16:34.953Z,11.88
2023-05-12T03:16:53.202Z,11.88
2023-05-12T03:17:25.667Z,11.88
2023-05-12T03:17:42.824Z,11.88
2023-05-12T03:18:12.957Z,11.88
2023-05-12T03:18:34.897Z,11.88
2023-05-12T03:19:01.631Z,11.77
2023-05-12T03:19:32.863Z,11.77
2023-05-12T03:20:05.060Z,11.77
2023-05-12T03:20:34.914Z,11.77
2023-05-12T03:20:53.076Z,11.77
2023-05-12T03:21:25.760Z,11.77
2023-05-12T03:21:42.807Z,11.77
2023-05-12T03:22:13.046Z,11.77
2023-05-12T03:22:34.909Z,11.77
2023-05-12T03:23:01.678Z,11.77
2023-05-12T03:23:32.879Z,11.77
2023-05-12T03:24:04.962Z,11.77
2023-05-12T03:24:34.908Z,11.77
2023-05-12T03:24:52.929Z,11.77
2023-05-12T03:25:26.123Z,11.77
2023-05-12T03:25:42.844Z,11.77
2023-05-12T03:26:12.881Z,11.77
2023-05-12T03:26:34.867Z,11.77
2023-05-12T03:27:01.713Z,11.77
2023-05-12T03:27:32.911Z,11.77
2023-05-12T03:28:05.633Z,11.77
2023-05-12T03:28:34.858Z,11.77
2023-05-12T03:28:52.828Z,11.77
2023-05-12T03:29:25.555Z,11.77
2023-05-12T03:29:42.742Z,11.77
2023-05-12T03:30:13.168Z,11.77
2023-05-12T03:30:35.175Z,11.77
2023-05-12T03:31:01.754Z,11.77
2023-05-12T03:31:32.947Z,11.77
2023-05-12T03:32:05.009Z,11.77
2023-05-12T03:32:34.937Z,11.77
2023-05-12T03:32:52.881Z,11.77
2023-05-12T03:33:26.142Z,11.77
2023-05-12T03:33:42.751Z,11.77
2023-05-12T03:34:12.995Z,11.77
2023-05-12T03:34:34.871Z,11.77
2023-05-12T03:35:01.813Z,11.77
2023-05-12T03:35:32.862Z,11.77
2023-05-12T03:36:04.937Z,11.77
2023-05-12T03:36:34.903Z,11.77
2023-05-12T03:36:52.890Z,11.77
2023-05-12T03:37:25.635Z,11.77
2023-05-12T03:37:43.048Z,11.77
2023-05-12T03:38:12.856Z,11.77
2023-05-12T03:38:34.912Z,11.77
2023-05-12T03:39:00.974Z,11.77
2023-05-12T03:39:33.555Z,11.77
2023-05-12T03:40:05.035Z,11.77
2023-05-12T03:40:35.207Z,11.77
2023-05-12T03:40:53.779Z,11.77
2023-05-12T03:41:24.931Z,11.77
2023-05-12T03:41:41.936Z,11.77
2023-05-12T03:42:12.854Z,11.72
2023-05-12T03:42:34.840Z,11.72
2023-05-12T03:43:01.532Z,11.72
2023-05-12T03:43:33.024Z,11.72
2023-05-12T03:44:05.169Z,11.72
2023-05-12T03:44:34.795Z,11.72
2023-05-12T03:44:52.848Z,11.72
2023-05-12T03:45:25.880Z,11.72
2023-05-12T03:45:42.761Z,11.72
2023-05-12T03:46:12.875Z,11.72
2023-05-12T03:46:35.101Z,11.72
2023-05-12T03:47:01.699Z,11.72
2023-05-12T03:47:32.973Z,11.72
2023-05-12T03:48:04.970Z,11.72
2023-05-12T03:48:34.933Z,11.72
2023-05-12T03:48:52.907Z,11.72
2023-05-12T03:49:25.562Z,11.72
2023-05-12T03:49:42.662Z,11.72
2023-05-12T03:50:13.033Z,11.72
2023-05-12T03:50:34.939Z,11.72
2023-05-12T03:51:01.761Z,11.72
2023-05-12T03:51:32.881Z,11.72
2023-05-12T03:52:04.940Z,11.72
2023-05-12T03:52:34.960Z,11.72
2023-05-12T03:52:52.926Z,11.72
2023-05-12T03:53:25.735Z,11.72
2023-05-12T03:53:42.769Z,11.72
2023-05-12T03:54:12.843Z,11.61
2023-05-12T03:54:37.261Z,11.61
2023-05-12T03:55:01.802Z,11.61
2023-05-12T03:55:32.903Z,11.61
2023-05-12T03:56:04.976Z,11.61
2023-05-12T03:56:34.954Z,11.61
2023-05-12T03:56:53.093Z,11.61
2023-05-12T03:57:25.742Z,11.61
2023-05-12T03:57:42.697Z,11.61
2023-05-12T03:58:12.833Z,11.61
2023-05-12T03:58:34.836Z,11.61
2023-05-12T03:59:01.558Z,11.50
2023-05-12T03:59:32.817Z,11.50
2023-05-12T04:00:05.517Z,11.50
2023-05-12T04:00:35.194Z,11.50
2023-05-12T04:00:52.973Z,11.50
2023-05-12T04:01:25.545Z,11.50
2023-05-12T04:01:42.804Z,11.50
2023-05-12T04:02:12.838Z,11.50
2023-05-12T04:02:35.492Z,11.50
2023-05-12T04:03:01.064Z,11.50
2023-05-12T04:03:33.753Z,11.50
2023-05-12T04:04:04.939Z,11.50
2023-05-12T04:04:34.905Z,11.50
2023-05-12T04:04:53.426Z,11.50
2023-05-12T04:05:25.002Z,11.50
2023-05-12T04:05:41.951Z,11.50
2023-05-12T04:06:13.588Z,11.50
2023-05-12T04:06:34.781Z,11.38
2023-05-12T04:07:00.812Z,11.38
2023-05-12T04:07:33.474Z,11.38
2023-05-12T04:08:20.873Z,11.38
2023-05-12T04:08:52.854Z,11.38
2023-05-12T04:09:25.213Z,11.38
2023-05-12T04:09:42.613Z,11.38
2023-05-12T04:10:12.990Z,11.38
2023-05-12T04:10:35.039Z,11.38
2023-05-12T04:11:01.809Z,11.38
2023-05-12T04:11:32.832Z,11.38
2023-05-12T04:12:05.886Z,11.38
2023-05-12T04:12:34.829Z,11.38
2023-05-12T04:12:52.906Z,11.38
2023-05-12T04:13:25.685Z,11.38
2023-05-12T04:13:42.814Z,11.38
2023-05-12T04:14:12.977Z,11.38
2023-05-12T04:14:42.797Z,11.38
2023-05-12T04:15:02.243Z,11.38
2023-05-12T04:15:33.505Z,11.38
2023-05-12T04:16:04.867Z,11.38
2023-05-12T04:16:35.036Z,11.38
2023-05-12T04:16:53.015Z,11.38
2023-05-12T04:17:25.656Z,11.38
2023-05-12T04:17:43.426Z,11.38
2023-05-12T04:18:12.835Z,11.38
2023-05-12T04:18:34.974Z,11.38
2023-05-12T04:19:01.119Z,11.38
2023-05-12T04:19:33.080Z,11.38
2023-05-12T04:20:05.501Z,11.38
2023-05-12T04:20:34.933Z,11.38
2023-05-12T04:20:53.026Z,11.38
2023-05-12T04:21:25.733Z,11.38
2023-05-12T04:21:42.847Z,11.38
2023-05-12T04:22:13.102Z,11.38
2023-05-12T04:22:35.309Z,11.38
2023-05-12T04:23:01.878Z,11.38
2023-05-12T04:23:32.986Z,11.38
2023-05-12T04:24:05.058Z,11.38
2023-05-12T04:24:34.978Z,11.38
2023-05-12T04:24:52.945Z,11.38
2023-05-12T04:25:26.271Z,11.38
2023-05-12T04:25:42.771Z,11.38
2023-05-12T04:26:12.854Z,11.38
2023-05-12T04:26:35.021Z,11.38
2023-05-12T04:27:01.920Z,11.38
2023-05-12T04:27:33.069Z,11.38
2023-05-12T04:28:05.065Z,11.38
2023-05-12T04:28:35.251Z,11.38
2023-05-12T04:28:52.995Z,11.38
2023-05-12T04:29:25.800Z,11.38
2023-05-12T04:29:42.763Z,11.38
2023-05-12T04:30:13.273Z,11.38
2023-05-12T04:30:35.121Z,11.38
2023-05-12T04:31:02.237Z,11.38
2023-05-12T04:31:33.059Z,11.38
2023-05-12T04:32:05.163Z,11.38
2023-05-12T04:32:35.821Z,11.38
2023-05-12T04:32:53.061Z,11.50
2023-05-12T04:33:25.877Z,11.50
2023-05-12T04:33:43.109Z,11.50
2023-05-12T04:34:13.134Z,11.50
2023-05-12T04:34:35.400Z,11.38
2023-05-12T04:35:01.850Z,11.38
2023-05-12T04:35:33.019Z,11.38
2023-05-12T04:36:05.139Z,11.38
2023-05-12T04:36:35.937Z,11.38
2023-05-12T04:36:53.117Z,11.38
2023-05-12T04:37:25.711Z,11.38
2023-05-12T04:37:42.873Z,11.38
2023-05-12T04:38:13.028Z,11.38
2023-05-12T04:38:35.101Z,11.38
2023-05-12T04:39:01.846Z,11.38
2023-05-12T04:39:32.998Z,11.50
2023-05-12T04:40:05.234Z,11.38
2023-05-12T04:40:35.749Z,11.38
2023-05-12T04:41:08.941Z,11.38
2023-05-12T04:41:34.983Z,11.38
2023-05-12T04:41:57.786Z,11.38
2023-05-12T04:42:28.868Z,11.38
2023-05-12T04:43:00.991Z,11.38
2023-05-12T04:44:05.380Z,11.38
2023-05-12T04:44:34.965Z,11.38
2023-05-12T04:44:52.996Z,11.38
2023-05-12T04:45:26.030Z,11.38
2023-05-12T04:45:42.848Z,11.38
2023-05-12T04:46:13.045Z,11.27
2023-05-12T04:46:35.167Z,11.27
2023-05-12T04:47:02.135Z,11.27
2023-05-12T04:47:33.021Z,11.27
2023-05-12T04:48:05.675Z,11.27
2023-05-12T04:48:35.227Z,11.27
2023-05-12T04:48:52.936Z,11.27
2023-05-12T04:49:25.693Z,11.27
2023-05-12T04:49:42.712Z,11.27
2023-05-12T04:50:13.176Z,11.27
2023-05-12T04:50:34.983Z,11.27
2023-05-12T04:51:01.831Z,11.27
2023-05-12T04:51:32.988Z,11.27
2023-05-12T04:52:05.315Z,11.27
2023-05-12T04:52:35.021Z,11.27
2023-05-12T04:52:52.934Z,11.27
2023-05-12T04:53:25.679Z,11.27
2023-05-12T04:53:42.773Z,11.27
2023-05-12T04:54:12.960Z,11.27
2023-05-12T04:54:35.255Z,11.27
2023-05-12T04:55:01.866Z,11.27
2023-05-12T04:55:32.962Z,11.27
2023-05-12T04:56:04.980Z,11.27
2023-05-12T04:56:34.954Z,11.27
2023-05-12T04:56:52.929Z,11.38
2023-05-12T04:57:25.667Z,11.38
2023-05-12T04:57:42.831Z,11.38
2023-05-12T04:58:12.930Z,11.38
2023-05-12T04:58:35.636Z,11.38
2023-05-12T04:59:01.792Z,11.38
2023-05-12T04:59:33.016Z,11.38
2023-05-12T05:00:07.901Z,11.38
2023-05-12T05:00:35.100Z,11.38
2023-05-12T05:00:53.082Z,11.38
2023-05-12T05:01:25.745Z,11.27
2023-05-12T05:01:42.741Z,11.27
2023-05-12T05:02:13.169Z,11.27
2023-05-12T05:02:35.055Z,11.27
2023-05-12T05:03:01.836Z,11.27
2023-05-12T05:03:33.074Z,11.38
2023-05-12T05:04:04.993Z,11.38
2023-05-12T05:04:35.173Z,11.38
2023-05-12T05:04:52.933Z,11.38
2023-05-12T05:05:25.920Z,11.38
2023-05-12T05:05:57.987Z,11.27
2023-05-12T05:06:28.942Z,11.27
2023-05-12T05:07:01.033Z,11.27
2023-05-12T05:07:32.989Z,11.27
2023-05-12T05:08:04.984Z,11.27
2023-05-12T05:08:34.933Z,11.38
2023-05-12T05:08:52.955Z,11.38
2023-05-12T05:09:25.656Z,11.38
2023-05-12T05:09:42.742Z,11.38
2023-05-12T05:10:13.049Z,11.38
2023-05-12T05:10:35.008Z,11.38
2023-05-12T05:11:17.757Z,11.38
2023-05-12T05:11:35.068Z,11.38
2023-05-12T05:12:05.057Z,11.38
2023-05-12T05:12:35.194Z,11.38
2023-05-12T05:12:53.786Z,11.38
2023-05-12T05:13:25.094Z,11.38
2023-05-12T05:13:42.106Z,11.38
2023-05-12T05:14:13.706Z,11.38
2023-05-12T05:14:35.036Z,11.38
2023-05-12T05:15:01.359Z,11.38
2023-05-12T05:15:33.783Z,11.38
2023-05-12T05:16:04.986Z,11.38
2023-05-12T05:16:35.300Z,11.38
2023-05-12T05:16:53.597Z,11.38
2023-05-12T05:17:25.167Z,11.38
2023-05-12T05:17:42.121Z,11.38
2023-05-12T05:18:13.850Z,11.38
2023-05-12T05:18:35.183Z,11.38
2023-05-12T05:19:05.889Z,11.38
2023-05-12T05:19:44.726Z,11.38
2023-05-12T05:20:11.396Z,11.38
2023-05-12T05:20:35.179Z,11.38
2023-05-12T05:20:58.579Z,11.38
2023-05-12T05:21:25.169Z,11.27
2023-05-12T05:21:42.092Z,11.27
2023-05-12T05:22:13.802Z,11.27
2023-05-12T05:22:34.880Z,11.27
2023-05-12T05:23:01.052Z,11.27
2023-05-12T05:23:33.734Z,11.27
2023-05-12T05:24:06.246Z,11.38
2023-05-12T05:24:35.374Z,11.38
2023-05-12T05:24:53.652Z,11.38
2023-05-12T05:25:25.134Z,11.38
2023-05-12T05:25:42.038Z,11.38
2023-05-12T05:26:13.805Z,11.38
2023-05-12T05:26:35.875Z,11.38
2023-05-12T05:27:01.050Z,11.38
2023-05-12T05:27:33.609Z,11.27
2023-05-12T05:28:04.908Z,11.27
2023-05-12T05:28:34.986Z,11.27
2023-05-12T05:28:53.670Z,11.27
2023-05-12T05:29:25.081Z,11.38
2023-05-12T05:29:42.001Z,11.38
2023-05-12T05:30:13.944Z,11.38
2023-05-12T05:30:35.086Z,11.38
2023-05-12T05:31:17.059Z,11.38
2023-05-12T05:31:35.585Z,11.38
2023-05-12T05:32:05.064Z,11.38
2023-05-12T05:32:35.320Z,11.38
2023-05-12T05:32:53.767Z,11.38
2023-05-12T05:33:25.397Z,11.38
2023-05-12T05:33:42.019Z,11.38
2023-05-12T05:34:13.758Z,11.38
2023-05-12T05:34:35.226Z,11.50
2023-05-12T05:35:01.190Z,11.50
2023-05-12T05:35:33.652Z,11.50
2023-05-12T05:36:04.981Z,11.50
2023-05-12T05:36:35.049Z,11.50
2023-05-12T05:36:53.573Z,11.50
2023-05-12T05:37:25.183Z,11.50
2023-05-12T05:37:42.010Z,11.50
2023-05-12T05:38:13.572Z,11.50
2023-05-12T05:38:34.952Z,11.50
2023-05-12T05:39:01.002Z,11.50
2023-05-12T05:39:33.592Z,11.50
2023-05-12T05:40:21.058Z,11.50
2023-05-12T05:40:54.689Z,11.50
2023-05-12T05:41:25.033Z,11.50
2023-05-12T05:41:42.033Z,11.50
2023-05-12T05:42:13.614Z,11.50
2023-05-12T05:42:35.053Z,11.38
2023-05-12T05:43:01.096Z,11.38
2023-05-12T05:43:33.588Z,11.38
2023-05-12T05:44:05.249Z,11.50
2023-05-12T05:44:35.041Z,11.50
2023-05-12T05:44:53.768Z,11.50
2023-05-12T05:45:27.054Z,11.50
2023-05-12T05:45:42.038Z,11.50
2023-05-12T05:46:13.845Z,11.50
2023-05-12T05:46:35.024Z,11.50
2023-05-12T05:47:01.124Z,11.50
2023-05-12T05:47:33.753Z,11.50
2023-05-12T05:48:05.106Z,11.50